sensor_id;sensor_type;location;lat;lon;timestamp;P1;durP1;ratioP1;P2;durP2;ratioP2
25988;SDS011;13778;48.236;9.894;2022-07-23T00:02:01;11.90;;;9.18;;
25988;SDS011;13778;48.236;9.894;2022-07-23T00:04:52;14.43;;;9.43;;
25988;SDS011;13778;48.236;9.894;2022-07-23T00:07:43;13.57;;;9.90;;
25988;SDS011;13778;48.236;9.894;2022-07-23T00:10:33;17.05;;;9.70;;
25988;SDS011;13778;48.236;9.894;2022-07-23T00:13:25;10.45;;;8.85;;
25988;SDS011;13778;48.236;9.894;2022-07-23T00:16:16;12.70;;;8.85;;
25988;SDS011;13778;48.236;9.894;2022-07-23T00:19:07;16.13;;;9.68;;
25988;SDS011;13778;48.236;9.894;2022-07-23T00:21:57;13.25;;;8.88;;
25988;SDS011;13778;48.236;9.894;2022-07-23T00:24:48;12.07;;;8.90;;
25988;SDS011;13778;48.236;9.894;2022-07-23T00:27:38;10.82;;;8.90;;
25988;SDS011;13778;48.236;9.894;2022-07-23T00:30:30;10.57;;;9.07;;
25988;SDS011;13778;48.236;9.894;2022-07-23T00:33:21;11.98;;;8.95;;
25988;SDS011;13778;48.236;9.894;2022-07-23T00:36:11;12.68;;;9.77;;
25988;SDS011;13778;48.236;9.894;2022-07-23T00:39:02;9.45;;;8.63;;
25988;SDS011;13778;48.236;9.894;2022-07-23T00:41:53;11.27;;;9.00;;
25988;SDS011;13778;48.236;9.894;2022-07-23T00:44:43;11.18;;;8.32;;
25988;SDS011;13778;48.236;9.894;2022-07-23T00:47:35;17.08;;;8.98;;
25988;SDS011;13778;48.236;9.894;2022-07-23T00:50:26;11.23;;;9.93;;
25988;SDS011;13778;48.236;9.894;2022-07-23T00:53:17;10.90;;;9.97;;
25988;SDS011;13778;48.236;9.894;2022-07-23T00:56:10;16.05;;;9.75;;
25988;SDS011;13778;48.236;9.894;2022-07-23T00:59:01;11.32;;;10.20;;
25988;SDS011;13778;48.236;9.894;2022-07-23T01:01:51;10.02;;;9.07;;
25988;SDS011;13778;48.236;9.894;2022-07-23T01:04:43;14.35;;;9.00;;
25988;SDS011;13778;48.236;9.894;2022-07-23T01:07:34;13.10;;;9.80;;
25988;SDS011;13778;48.236;9.894;2022-07-23T01:10:25;14.97;;;9.63;;
25988;SDS011;13778;48.236;9.894;2022-07-23T01:13:21;10.88;;;9.57;;
25988;SDS011;13778;48.236;9.894;2022-07-23T01:16:12;11.60;;;9.35;;
25988;SDS011;13778;48.236;9.894;2022-07-23T01:19:02;14.43;;;8.80;;
25988;SDS011;13778;48.236;9.894;2022-07-23T01:21:57;12.70;;;8.98;;
25988;SDS011;13778;48.236;9.894;2022-07-23T01:24:50;9.60;;;7.78;;
25988;SDS011;13778;48.236;9.894;2022-07-23T01:30:31;12.13;;;8.23;;
25988;SDS011;13778;48.236;9.894;2022-07-23T01:33:22;10.43;;;8.57;;
25988;SDS011;13778;48.236;9.894;2022-07-23T01:36:12;10.38;;;8.85;;
25988;SDS011;13778;48.236;9.894;2022-07-23T01:39:03;10.60;;;9.00;;
25988;SDS011;13778;48.236;9.894;2022-07-23T01:41:55;15.23;;;9.10;;
25988;SDS011;13778;48.236;9.894;2022-07-23T01:47:36;10.63;;;8.55;;
25988;SDS011;13778;48.236;9.894;2022-07-23T01:50:26;8.68;;;7.75;;
25988;SDS011;13778;48.236;9.894;2022-07-23T01:53:17;12.50;;;8.38;;
25988;SDS011;13778;48.236;9.894;2022-07-23T01:56:07;12.90;;;8.85;;
25988;SDS011;13778;48.236;9.894;2022-07-23T01:58:59;9.57;;;8.55;;
25988;SDS011;13778;48.236;9.894;2022-07-23T02:01:50;11.27;;;9.27;;
25988;SDS011;13778;48.236;9.894;2022-07-23T02:04:40;10.95;;;8.55;;
25988;SDS011;13778;48.236;9.894;2022-07-23T02:07:31;11.90;;;8.93;;
25988;SDS011;13778;48.236;9.894;2022-07-23T02:10:22;11.27;;;10.10;;
25988;SDS011;13778;48.236;9.894;2022-07-23T02:13:13;10.43;;;9.40;;
25988;SDS011;13778;48.236;9.894;2022-07-23T02:16:05;10.90;;;9.80;;
25988;SDS011;13778;48.236;9.894;2022-07-23T02:18:56;12.13;;;10.85;;
25988;SDS011;13778;48.236;9.894;2022-07-23T02:21:46;10.93;;;9.93;;
25988;SDS011;13778;48.236;9.894;2022-07-23T02:24:37;10.48;;;9.48;;
25988;SDS011;13778;48.236;9.894;2022-07-23T02:27:27;14.10;;;10.55;;
25988;SDS011;13778;48.236;9.894;2022-07-23T02:30:18;12.20;;;9.57;;
25988;SDS011;13778;48.236;9.894;2022-07-23T02:33:10;13.52;;;10.05;;
25988;SDS011;13778;48.236;9.894;2022-07-23T02:36:01;11.93;;;10.60;;
25988;SDS011;13778;48.236;9.894;2022-07-23T02:38:51;12.40;;;9.80;;
25988;SDS011;13778;48.236;9.894;2022-07-23T02:41:42;10.38;;;9.38;;
25988;SDS011;13778;48.236;9.894;2022-07-23T02:44:33;11.82;;;10.52;;
25988;SDS011;13778;48.236;9.894;2022-07-23T02:47:23;9.70;;;8.70;;
25988;SDS011;13778;48.236;9.894;2022-07-23T02:50:15;10.65;;;9.48;;
25988;SDS011;13778;48.236;9.894;2022-07-23T02:53:06;13.55;;;9.95;;
25988;SDS011;13778;48.236;9.894;2022-07-23T02:55:57;10.70;;;8.88;;
25988;SDS011;13778;48.236;9.894;2022-07-23T02:58:47;10.18;;;9.07;;
25988;SDS011;13778;48.236;9.894;2022-07-23T03:01:38;11.38;;;9.82;;
25988;SDS011;13778;48.236;9.894;2022-07-23T03:04:29;10.27;;;9.07;;
25988;SDS011;13778;48.236;9.894;2022-07-23T03:07:20;10.23;;;9.23;;
25988;SDS011;13778;48.236;9.894;2022-07-23T03:13:01;14.35;;;9.93;;
25988;SDS011;13778;48.236;9.894;2022-07-23T03:15:52;12.18;;;10.88;;
25988;SDS011;13778;48.236;9.894;2022-07-23T03:18:42;17.45;;;9.80;;
25988;SDS011;13778;48.236;9.894;2022-07-23T03:21:33;12.75;;;10.32;;
25988;SDS011;13778;48.236;9.894;2022-07-23T03:24:29;11.90;;;10.70;;
25988;SDS011;13778;48.236;9.894;2022-07-23T03:27:33;12.90;;;10.68;;
25988;SDS011;13778;48.236;9.894;2022-07-23T03:30:24;12.25;;;10.77;;
25988;SDS011;13778;48.236;9.894;2022-07-23T03:33:15;13.80;;;10.68;;
25988;SDS011;13778;48.236;9.894;2022-07-23T03:36:07;13.73;;;10.60;;
25988;SDS011;13778;48.236;9.894;2022-07-23T03:38:57;12.52;;;9.60;;
25988;SDS011;13778;48.236;9.894;2022-07-23T03:41:49;11.20;;;9.85;;
25988;SDS011;13778;48.236;9.894;2022-07-23T03:47:30;11.25;;;10.02;;
25988;SDS011;13778;48.236;9.894;2022-07-23T03:50:21;11.48;;;10.30;;
25988;SDS011;13778;48.236;9.894;2022-07-23T03:53:11;11.82;;;10.25;;
25988;SDS011;13778;48.236;9.894;2022-07-23T03:56:02;11.77;;;9.90;;
25988;SDS011;13778;48.236;9.894;2022-07-23T03:58:54;13.13;;;11.30;;
25988;SDS011;13778;48.236;9.894;2022-07-23T04:04:35;14.23;;;11.48;;
25988;SDS011;13778;48.236;9.894;2022-07-23T04:07:25;13.25;;;10.68;;
25988;SDS011;13778;48.236;9.894;2022-07-23T04:10:16;13.98;;;12.48;;
25988;SDS011;13778;48.236;9.894;2022-07-23T04:13:07;15.60;;;11.95;;
25988;SDS011;13778;48.236;9.894;2022-07-23T04:15:59;13.32;;;11.90;;
25988;SDS011;13778;48.236;9.894;2022-07-23T04:21:40;12.45;;;11.15;;
25988;SDS011;13778;48.236;9.894;2022-07-23T04:24:30;13.95;;;11.50;;
25988;SDS011;13778;48.236;9.894;2022-07-23T04:27:21;12.15;;;10.90;;
25988;SDS011;13778;48.236;9.894;2022-07-23T04:30:12;18.40;;;13.50;;
25988;SDS011;13778;48.236;9.894;2022-07-23T04:33:04;14.10;;;12.70;;
25988;SDS011;13778;48.236;9.894;2022-07-23T04:35:56;14.73;;;13.18;;
25988;SDS011;13778;48.236;9.894;2022-07-23T04:38:46;16.02;;;12.68;;
25988;SDS011;13778;48.236;9.894;2022-07-23T04:41:37;15.00;;;13.40;;
25988;SDS011;13778;48.236;9.894;2022-07-23T04:44:27;12.15;;;10.68;;
25988;SDS011;13778;48.236;9.894;2022-07-23T04:47:18;14.25;;;12.82;;
25988;SDS011;13778;48.236;9.894;2022-07-23T04:50:10;14.40;;;12.98;;
25988;SDS011;13778;48.236;9.894;2022-07-23T04:53:00;16.38;;;12.93;;
25988;SDS011;13778;48.236;9.894;2022-07-23T04:55:51;19.00;;;12.90;;
25988;SDS011;13778;48.236;9.894;2022-07-23T04:58:42;14.98;;;12.73;;
25988;SDS011;13778;48.236;9.894;2022-07-23T05:01:32;14.40;;;12.90;;
25988;SDS011;13778;48.236;9.894;2022-07-23T05:04:23;17.73;;;13.20;;
25988;SDS011;13778;48.236;9.894;2022-07-23T05:07:15;15.20;;;13.35;;
25988;SDS011;13778;48.236;9.894;2022-07-23T05:10:05;14.88;;;13.27;;
25988;SDS011;13778;48.236;9.894;2022-07-23T05:12:56;15.77;;;12.73;;
25988;SDS011;13778;48.236;9.894;2022-07-23T05:15:46;14.52;;;12.88;;
25988;SDS011;13778;48.236;9.894;2022-07-23T05:18:37;15.00;;;12.77;;
25988;SDS011;13778;48.236;9.894;2022-07-23T05:21:28;14.43;;;12.93;;
25988;SDS011;13778;48.236;9.894;2022-07-23T05:24:20;14.98;;;12.77;;
25988;SDS011;13778;48.236;9.894;2022-07-23T05:30:00;15.13;;;12.82;;
25988;SDS011;13778;48.236;9.894;2022-07-23T05:32:50;18.95;;;11.90;;
25988;SDS011;13778;48.236;9.894;2022-07-23T05:35:41;14.60;;;11.98;;
25988;SDS011;13778;48.236;9.894;2022-07-23T05:38:32;17.10;;;12.80;;
25988;SDS011;13778;48.236;9.894;2022-07-23T05:41:23;12.60;;;11.02;;
25988;SDS011;13778;48.236;9.894;2022-07-23T05:44:14;14.07;;;11.63;;
25988;SDS011;13778;48.236;9.894;2022-07-23T05:47:04;16.77;;;11.27;;
25988;SDS011;13778;48.236;9.894;2022-07-23T05:49:55;12.63;;;11.32;;
25988;SDS011;13778;48.236;9.894;2022-07-23T05:52:45;16.05;;;12.13;;
25988;SDS011;13778;48.236;9.894;2022-07-23T05:55:36;15.20;;;11.20;;
25988;SDS011;13778;48.236;9.894;2022-07-23T05:58:28;16.75;;;10.85;;
25988;SDS011;13778;48.236;9.894;2022-07-23T06:01:19;12.23;;;9.80;;
25988;SDS011;13778;48.236;9.894;2022-07-23T06:04:09;15.18;;;11.95;;
25988;SDS011;13778;48.236;9.894;2022-07-23T06:07:00;14.98;;;11.15;;
25988;SDS011;13778;48.236;9.894;2022-07-23T06:09:51;17.25;;;11.98;;
25988;SDS011;13778;48.236;9.894;2022-07-23T06:12:41;12.32;;;9.98;;
25988;SDS011;13778;48.236;9.894;2022-07-23T06:15:33;15.85;;;10.45;;
25988;SDS011;13778;48.236;9.894;2022-07-23T06:21:14;19.73;;;10.93;;
25988;SDS011;13778;48.236;9.894;2022-07-23T06:24:05;14.18;;;10.30;;
25988;SDS011;13778;48.236;9.894;2022-07-23T06:26:55;12.75;;;8.77;;
25988;SDS011;13778;48.236;9.894;2022-07-23T06:29:45;11.35;;;9.50;;
25988;SDS011;13778;48.236;9.894;2022-07-23T06:32:37;16.40;;;10.57;;
25988;SDS011;13778;48.236;9.894;2022-07-23T06:38:18;12.85;;;9.23;;
25988;SDS011;13778;48.236;9.894;2022-07-23T06:41:08;10.32;;;8.48;;
25988;SDS011;13778;48.236;9.894;2022-07-23T06:43:59;14.68;;;9.18;;
25988;SDS011;13778;48.236;9.894;2022-07-23T06:46:49;10.82;;;9.68;;
25988;SDS011;13778;48.236;9.894;2022-07-23T06:49:41;12.73;;;8.82;;
25988;SDS011;13778;48.236;9.894;2022-07-23T06:52:31;10.00;;;9.00;;
25988;SDS011;13778;48.236;9.894;2022-07-23T06:55:22;12.45;;;9.82;;
25988;SDS011;13778;48.236;9.894;2022-07-23T06:58:12;15.32;;;10.32;;
25988;SDS011;13778;48.236;9.894;2022-07-23T07:01:03;12.43;;;9.68;;
25988;SDS011;13778;48.236;9.894;2022-07-23T07:03:54;13.70;;;10.32;;
25988;SDS011;13778;48.236;9.894;2022-07-23T07:06:45;12.68;;;11.10;;
25988;SDS011;13778;48.236;9.894;2022-07-23T07:12:26;11.27;;;9.65;;
25988;SDS011;13778;48.236;9.894;2022-07-23T07:15:17;14.30;;;11.15;;
25988;SDS011;13778;48.236;9.894;2022-07-23T07:18:08;13.18;;;11.15;;
25988;SDS011;13778;48.236;9.894;2022-07-23T07:20:58;14.02;;;10.32;;
25988;SDS011;13778;48.236;9.894;2022-07-23T07:23:50;10.70;;;9.60;;
25988;SDS011;13778;48.236;9.894;2022-07-23T07:26:41;13.40;;;10.60;;
25988;SDS011;13778;48.236;9.894;2022-07-23T07:29:31;12.23;;;9.32;;
25988;SDS011;13778;48.236;9.894;2022-07-23T07:32:22;10.02;;;8.65;;
25988;SDS011;13778;48.236;9.894;2022-07-23T07:35:12;12.25;;;8.40;;
25988;SDS011;13778;48.236;9.894;2022-07-23T07:38:03;9.05;;;8.07;;
25988;SDS011;13778;48.236;9.894;2022-07-23T07:40:55;8.32;;;7.47;;
25988;SDS011;13778;48.236;9.894;2022-07-23T07:43:45;12.10;;;7.38;;
25988;SDS011;13778;48.236;9.894;2022-07-23T07:46:36;8.55;;;7.75;;
25988;SDS011;13778;48.236;9.894;2022-07-23T07:49:27;9.82;;;7.78;;
25988;SDS011;13778;48.236;9.894;2022-07-23T07:52:17;10.90;;;7.50;;
25988;SDS011;13778;48.236;9.894;2022-07-23T07:55:08;8.65;;;7.75;;
25988;SDS011;13778;48.236;9.894;2022-07-23T07:58:00;9.25;;;6.72;;
25988;SDS011;13778;48.236;9.894;2022-07-23T08:00:51;8.82;;;7.57;;
25988;SDS011;13778;48.236;9.894;2022-07-23T08:03:42;8.00;;;7.18;;
25988;SDS011;13778;48.236;9.894;2022-07-23T08:06:32;7.65;;;6.95;;
25988;SDS011;13778;48.236;9.894;2022-07-23T08:09:22;8.07;;;7.30;;
25988;SDS011;13778;48.236;9.894;2022-07-23T08:12:13;8.30;;;7.45;;
25988;SDS011;13778;48.236;9.894;2022-07-23T08:15:06;8.38;;;7.32;;
25988;SDS011;13778;48.236;9.894;2022-07-23T08:17:56;8.82;;;7.68;;
25988;SDS011;13778;48.236;9.894;2022-07-23T08:20:47;8.73;;;7.82;;
25988;SDS011;13778;48.236;9.894;2022-07-23T08:23:38;10.35;;;7.75;;
25988;SDS011;13778;48.236;9.894;2022-07-23T08:26:28;10.55;;;7.53;;
25988;SDS011;13778;48.236;9.894;2022-07-23T08:29:19;8.25;;;7.45;;
25988;SDS011;13778;48.236;9.894;2022-07-23T08:32:11;8.70;;;7.78;;
25988;SDS011;13778;48.236;9.894;2022-07-23T08:35:01;8.13;;;7.32;;
25988;SDS011;13778;48.236;9.894;2022-07-23T08:37:52;7.95;;;7.25;;
25988;SDS011;13778;48.236;9.894;2022-07-23T08:40:43;8.20;;;7.38;;
25988;SDS011;13778;48.236;9.894;2022-07-23T08:43:34;10.82;;;7.80;;
25988;SDS011;13778;48.236;9.894;2022-07-23T08:46:24;8.73;;;7.82;;
25988;SDS011;13778;48.236;9.894;2022-07-23T08:49:16;7.80;;;7.10;;
25988;SDS011;13778;48.236;9.894;2022-07-23T08:52:07;8.23;;;7.45;;
25988;SDS011;13778;48.236;9.894;2022-07-23T08:54:58;8.88;;;8.07;;
25988;SDS011;13778;48.236;9.894;2022-07-23T08:57:50;9.82;;;8.70;;
25988;SDS011;13778;48.236;9.894;2022-07-23T09:00:40;10.15;;;7.65;;
25988;SDS011;13778;48.236;9.894;2022-07-23T09:03:32;9.57;;;8.57;;
25988;SDS011;13778;48.236;9.894;2022-07-23T09:06:24;10.65;;;8.40;;
25988;SDS011;13778;48.236;9.894;2022-07-23T09:12:05;9.25;;;8.00;;
25988;SDS011;13778;48.236;9.894;2022-07-23T09:14:56;10.77;;;8.43;;
25988;SDS011;13778;48.236;9.894;2022-07-23T09:17:53;9.27;;;8.45;;
25988;SDS011;13778;48.236;9.894;2022-07-23T09:20:44;9.70;;;8.05;;
25988;SDS011;13778;48.236;9.894;2022-07-23T09:23:37;9.90;;;8.77;;
25988;SDS011;13778;48.236;9.894;2022-07-23T09:26:30;10.95;;;8.68;;
25988;SDS011;13778;48.236;9.894;2022-07-23T09:29:21;8.95;;;8.15;;
25988;SDS011;13778;48.236;9.894;2022-07-23T09:32:13;9.38;;;8.45;;
25988;SDS011;13778;48.236;9.894;2022-07-23T09:35:03;11.50;;;8.48;;
25988;SDS011;13778;48.236;9.894;2022-07-23T09:38:00;10.10;;;8.77;;
25988;SDS011;13778;48.236;9.894;2022-07-23T09:43:58;10.60;;;7.70;;
25988;SDS011;13778;48.236;9.894;2022-07-23T09:46:57;7.97;;;7.20;;
25988;SDS011;13778;48.236;9.894;2022-07-23T09:49:57;8.63;;;7.72;;
25988;SDS011;13778;48.236;9.894;2022-07-23T09:52:48;9.50;;;7.97;;
25988;SDS011;13778;48.236;9.894;2022-07-23T09:55:39;11.80;;;8.93;;
25988;SDS011;13778;48.236;9.894;2022-07-23T09:58:30;9.00;;;8.20;;
25988;SDS011;13778;48.236;9.894;2022-07-23T10:01:22;9.50;;;8.37;;
25988;SDS011;13778;48.236;9.894;2022-07-23T10:04:13;9.27;;;8.35;;
25988;SDS011;13778;48.236;9.894;2022-07-23T10:07:04;10.23;;;8.13;;
25988;SDS011;13778;48.236;9.894;2022-07-23T10:09:55;9.85;;;8.95;;
25988;SDS011;13778;48.236;9.894;2022-07-23T10:12:47;10.15;;;8.15;;
25988;SDS011;13778;48.236;9.894;2022-07-23T10:15:54;8.63;;;7.65;;
25988;SDS011;13778;48.236;9.894;2022-07-23T10:18:46;8.80;;;8.00;;
25988;SDS011;13778;48.236;9.894;2022-07-23T10:21:38;10.52;;;8.55;;
25988;SDS011;13778;48.236;9.894;2022-07-23T10:27:50;9.23;;;8.32;;
25988;SDS011;13778;48.236;9.894;2022-07-23T10:30:43;9.93;;;8.90;;
25988;SDS011;13778;48.236;9.894;2022-07-23T10:33:38;9.75;;;8.77;;
25988;SDS011;13778;48.236;9.894;2022-07-23T10:36:36;9.55;;;7.97;;
25988;SDS011;13778;48.236;9.894;2022-07-23T10:39:30;11.07;;;8.95;;
25988;SDS011;13778;48.236;9.894;2022-07-23T10:42:21;8.85;;;8.05;;
25988;SDS011;13778;48.236;9.894;2022-07-23T10:45:27;9.00;;;8.20;;
25988;SDS011;13778;48.236;9.894;2022-07-23T10:48:18;9.25;;;8.35;;
25988;SDS011;13778;48.236;9.894;2022-07-23T10:51:10;9.90;;;8.73;;
25988;SDS011;13778;48.236;9.894;2022-07-23T10:54:02;9.18;;;8.27;;
25988;SDS011;13778;48.236;9.894;2022-07-23T10:57:05;9.82;;;8.93;;
25988;SDS011;13778;48.236;9.894;2022-07-23T11:00:15;10.02;;;8.88;;
25988;SDS011;13778;48.236;9.894;2022-07-23T11:03:27;9.57;;;8.68;;
25988;SDS011;13778;48.236;9.894;2022-07-23T11:06:18;11.75;;;8.18;;
25988;SDS011;13778;48.236;9.894;2022-07-23T11:12:34;9.82;;;8.95;;
25988;SDS011;13778;48.236;9.894;2022-07-23T11:15:27;9.70;;;8.70;;
25988;SDS011;13778;48.236;9.894;2022-07-23T11:18:18;9.25;;;8.13;;
25988;SDS011;13778;48.236;9.894;2022-07-23T11:21:41;10.00;;;9.07;;
25988;SDS011;13778;48.236;9.894;2022-07-23T11:24:32;9.50;;;8.50;;
25988;SDS011;13778;48.236;9.894;2022-07-23T11:27:42;9.38;;;8.32;;
25988;SDS011;13778;48.236;9.894;2022-07-23T11:30:37;13.88;;;8.63;;
25988;SDS011;13778;48.236;9.894;2022-07-23T11:33:28;10.40;;;8.63;;
25988;SDS011;13778;48.236;9.894;2022-07-23T11:36:18;9.73;;;8.83;;
25988;SDS011;13778;48.236;9.894;2022-07-23T11:39:09;11.10;;;8.73;;
25988;SDS011;13778;48.236;9.894;2022-07-23T11:42:00;9.83;;;8.83;;
25988;SDS011;13778;48.236;9.894;2022-07-23T11:44:55;16.42;;;9.63;;
25988;SDS011;13778;48.236;9.894;2022-07-23T11:47:45;10.55;;;8.48;;
25988;SDS011;13778;48.236;9.894;2022-07-23T11:50:36;10.30;;;9.30;;
25988;SDS011;13778;48.236;9.894;2022-07-23T11:53:27;9.25;;;8.35;;
25988;SDS011;13778;48.236;9.894;2022-07-23T11:59:08;9.43;;;8.43;;
25988;SDS011;13778;48.236;9.894;2022-07-23T12:02:00;9.93;;;9.00;;
25988;SDS011;13778;48.236;9.894;2022-07-23T12:04:51;9.80;;;9.00;;
25988;SDS011;13778;48.236;9.894;2022-07-23T12:07:43;9.10;;;8.32;;
25988;SDS011;13778;48.236;9.894;2022-07-23T12:10:34;9.75;;;8.35;;
25988;SDS011;13778;48.236;9.894;2022-07-23T12:13:24;9.90;;;8.77;;
25988;SDS011;13778;48.236;9.894;2022-07-23T12:16:15;10.20;;;9.10;;
25988;SDS011;13778;48.236;9.894;2022-07-23T12:19:06;9.15;;;8.25;;
25988;SDS011;13778;48.236;9.894;2022-07-23T12:21:57;9.75;;;8.80;;
25988;SDS011;13778;48.236;9.894;2022-07-23T12:24:57;9.40;;;8.57;;
25988;SDS011;13778;48.236;9.894;2022-07-23T12:27:57;10.00;;;8.90;;
25988;SDS011;13778;48.236;9.894;2022-07-23T12:30:49;10.63;;;9.43;;
25988;SDS011;13778;48.236;9.894;2022-07-23T12:33:41;10.27;;;9.02;;
25988;SDS011;13778;48.236;9.894;2022-07-23T12:36:39;8.95;;;8.23;;
25988;SDS011;13778;48.236;9.894;2022-07-23T12:39:30;11.45;;;8.80;;
25988;SDS011;13778;48.236;9.894;2022-07-23T12:42:21;10.37;;;9.47;;
25988;SDS011;13778;48.236;9.894;2022-07-23T12:45:13;10.57;;;9.48;;
25988;SDS011;13778;48.236;9.894;2022-07-23T12:48:04;10.68;;;9.65;;
25988;SDS011;13778;48.236;9.894;2022-07-23T12:50:57;10.27;;;9.18;;
25988;SDS011;13778;48.236;9.894;2022-07-23T12:53:49;11.50;;;9.77;;
25988;SDS011;13778;48.236;9.894;2022-07-23T12:56:40;10.07;;;9.07;;
25988;SDS011;13778;48.236;9.894;2022-07-23T12:59:34;10.60;;;9.40;;
25988;SDS011;13778;48.236;9.894;2022-07-23T13:02:25;13.27;;;9.82;;
25988;SDS011;13778;48.236;9.894;2022-07-23T13:05:15;11.23;;;8.60;;
25988;SDS011;13778;48.236;9.894;2022-07-23T13:08:06;11.98;;;9.68;;
25988;SDS011;13778;48.236;9.894;2022-07-23T13:10:58;10.67;;;9.13;;
25988;SDS011;13778;48.236;9.894;2022-07-23T13:13:48;11.05;;;9.95;;
25988;SDS011;13778;48.236;9.894;2022-07-23T13:16:39;11.25;;;10.10;;
25988;SDS011;13778;48.236;9.894;2022-07-23T13:19:29;10.35;;;9.35;;
25988;SDS011;13778;48.236;9.894;2022-07-23T13:22:20;9.98;;;9.07;;
25988;SDS011;13778;48.236;9.894;2022-07-23T13:25:10;10.60;;;9.47;;
25988;SDS011;13778;48.236;9.894;2022-07-23T13:28:02;10.15;;;9.25;;
25988;SDS011;13778;48.236;9.894;2022-07-23T13:30:53;9.95;;;8.80;;
25988;SDS011;13778;48.236;9.894;2022-07-23T13:33:43;10.23;;;9.27;;
25988;SDS011;13778;48.236;9.894;2022-07-23T13:36:34;10.50;;;9.60;;
25988;SDS011;13778;48.236;9.894;2022-07-23T13:39:25;10.57;;;9.13;;
25988;SDS011;13778;48.236;9.894;2022-07-23T13:42:15;13.07;;;10.60;;
25988;SDS011;13778;48.236;9.894;2022-07-23T13:45:07;10.67;;;9.67;;
25988;SDS011;13778;48.236;9.894;2022-07-23T13:47:58;11.95;;;9.48;;
25988;SDS011;13778;48.236;9.894;2022-07-23T13:50:49;12.63;;;10.27;;
25988;SDS011;13778;48.236;9.894;2022-07-23T13:53:39;16.85;;;10.80;;
25988;SDS011;13778;48.236;9.894;2022-07-23T13:56:30;16.90;;;11.80;;
25988;SDS011;13778;48.236;9.894;2022-07-23T13:59:20;24.13;;;14.27;;
25988;SDS011;13778;48.236;9.894;2022-07-23T14:02:12;23.23;;;15.18;;
25988;SDS011;13778;48.236;9.894;2022-07-23T14:05:03;24.63;;;15.93;;
25988;SDS011;13778;48.236;9.894;2022-07-23T14:07:54;18.50;;;13.63;;
25988;SDS011;13778;48.236;9.894;2022-07-23T14:10:45;17.70;;;13.48;;
25988;SDS011;13778;48.236;9.894;2022-07-23T14:13:35;16.52;;;12.70;;
25988;SDS011;13778;48.236;9.894;2022-07-23T14:16:25;12.20;;;11.05;;
25988;SDS011;13778;48.236;9.894;2022-07-23T14:19:17;11.88;;;10.48;;
25988;SDS011;13778;48.236;9.894;2022-07-23T14:22:08;13.90;;;12.10;;
25988;SDS011;13778;48.236;9.894;2022-07-23T14:24:58;13.68;;;12.20;;
25988;SDS011;13778;48.236;9.894;2022-07-23T14:27:49;13.57;;;11.93;;
25988;SDS011;13778;48.236;9.894;2022-07-23T14:30:39;12.55;;;11.30;;
25988;SDS011;13778;48.236;9.894;2022-07-23T14:33:31;10.73;;;9.63;;
25988;SDS011;13778;48.236;9.894;2022-07-23T14:36:23;10.85;;;9.73;;
25988;SDS011;13778;48.236;9.894;2022-07-23T14:39:14;10.98;;;9.88;;
25988;SDS011;13778;48.236;9.894;2022-07-23T14:42:05;10.70;;;9.70;;
25988;SDS011;13778;48.236;9.894;2022-07-23T14:44:56;10.55;;;9.38;;
25988;SDS011;13778;48.236;9.894;2022-07-23T14:47:46;11.75;;;10.52;;
25988;SDS011;13778;48.236;9.894;2022-07-23T14:50:36;11.52;;;10.40;;
25988;SDS011;13778;48.236;9.894;2022-07-23T14:53:28;11.82;;;10.73;;
25988;SDS011;13778;48.236;9.894;2022-07-23T14:56:19;12.60;;;11.40;;
25988;SDS011;13778;48.236;9.894;2022-07-23T14:59:09;11.60;;;10.45;;
25988;SDS011;13778;48.236;9.894;2022-07-23T15:02:00;11.07;;;9.40;;
25988;SDS011;13778;48.236;9.894;2022-07-23T15:04:50;10.90;;;9.80;;
25988;SDS011;13778;48.236;9.894;2022-07-23T15:07:41;10.85;;;9.93;;
25988;SDS011;13778;48.236;9.894;2022-07-23T15:10:33;10.10;;;9.10;;
25988;SDS011;13778;48.236;9.894;2022-07-23T15:13:24;9.98;;;8.38;;
25988;SDS011;13778;48.236;9.894;2022-07-23T15:16:14;12.40;;;9.25;;
25988;SDS011;13778;48.236;9.894;2022-07-23T15:19:05;17.45;;;10.68;;
25988;SDS011;13778;48.236;9.894;2022-07-23T15:21:55;11.93;;;8.93;;
25988;SDS011;13778;48.236;9.894;2022-07-23T15:24:46;11.93;;;9.95;;
25988;SDS011;13778;48.236;9.894;2022-07-23T15:27:38;10.65;;;9.73;;
25988;SDS011;13778;48.236;9.894;2022-07-23T15:30:28;11.05;;;10.05;;
25988;SDS011;13778;48.236;9.894;2022-07-23T15:33:19;10.35;;;9.32;;
25988;SDS011;13778;48.236;9.894;2022-07-23T15:36:09;9.98;;;9.05;;
25988;SDS011;13778;48.236;9.894;2022-07-23T15:39:00;9.85;;;8.85;;
25988;SDS011;13778;48.236;9.894;2022-07-23T15:41:50;11.55;;;10.48;;
25988;SDS011;13778;48.236;9.894;2022-07-23T15:44:42;12.65;;;11.30;;
25988;SDS011;13778;48.236;9.894;2022-07-23T15:47:33;11.43;;;10.25;;
25988;SDS011;13778;48.236;9.894;2022-07-23T15:50:23;11.48;;;10.38;;
25988;SDS011;13778;48.236;9.894;2022-07-23T15:53:14;11.87;;;10.60;;
25988;SDS011;13778;48.236;9.894;2022-07-23T15:56:05;12.07;;;10.85;;
25988;SDS011;13778;48.236;9.894;2022-07-23T15:58:56;10.98;;;9.95;;
25988;SDS011;13778;48.236;9.894;2022-07-23T16:01:48;12.25;;;11.00;;
25988;SDS011;13778;48.236;9.894;2022-07-23T16:04:39;10.98;;;10.07;;
25988;SDS011;13778;48.236;9.894;2022-07-23T16:07:29;10.80;;;9.75;;
25988;SDS011;13778;48.236;9.894;2022-07-23T16:10:20;10.82;;;9.82;;
25988;SDS011;13778;48.236;9.894;2022-07-23T16:13:11;11.82;;;9.80;;
25988;SDS011;13778;48.236;9.894;2022-07-23T16:16:01;11.65;;;10.10;;
25988;SDS011;13778;48.236;9.894;2022-07-23T16:18:54;12.00;;;10.10;;
25988;SDS011;13778;48.236;9.894;2022-07-23T16:21:44;10.73;;;9.77;;
25988;SDS011;13778;48.236;9.894;2022-07-23T16:24:35;12.52;;;10.32;;
25988;SDS011;13778;48.236;9.894;2022-07-23T16:27:25;11.57;;;10.38;;
25988;SDS011;13778;48.236;9.894;2022-07-23T16:30:16;10.88;;;9.30;;
25988;SDS011;13778;48.236;9.894;2022-07-23T16:33:07;11.50;;;10.30;;
25988;SDS011;13778;48.236;9.894;2022-07-23T16:35:58;11.52;;;10.43;;
25988;SDS011;13778;48.236;9.894;2022-07-23T16:38:49;12.70;;;9.85;;
25988;SDS011;13778;48.236;9.894;2022-07-23T16:41:40;12.18;;;10.98;;
25988;SDS011;13778;48.236;9.894;2022-07-23T16:44:30;12.60;;;10.90;;
25988;SDS011;13778;48.236;9.894;2022-07-23T16:47:20;12.82;;;11.52;;
25988;SDS011;13778;48.236;9.894;2022-07-23T16:50:11;14.68;;;11.80;;
25988;SDS011;13778;48.236;9.894;2022-07-23T16:53:02;14.10;;;12.02;;
25988;SDS011;13778;48.236;9.894;2022-07-23T16:55:52;11.80;;;10.70;;
25988;SDS011;13778;48.236;9.894;2022-07-23T16:58:43;11.15;;;10.05;;
25988;SDS011;13778;48.236;9.894;2022-07-23T17:01:33;11.15;;;10.05;;
25988;SDS011;13778;48.236;9.894;2022-07-23T17:04:24;14.77;;;10.35;;
25988;SDS011;13778;48.236;9.894;2022-07-23T17:07:14;11.02;;;10.02;;
25988;SDS011;13778;48.236;9.894;2022-07-23T17:10:07;12.13;;;10.35;;
25988;SDS011;13778;48.236;9.894;2022-07-23T17:12:58;11.93;;;10.82;;
25988;SDS011;13778;48.236;9.894;2022-07-23T17:15:49;11.52;;;10.20;;
25988;SDS011;13778;48.236;9.894;2022-07-23T17:18:39;11.43;;;10.43;;
25988;SDS011;13778;48.236;9.894;2022-07-23T17:21:29;11.48;;;10.05;;
25988;SDS011;13778;48.236;9.894;2022-07-23T17:24:19;10.90;;;9.80;;
25988;SDS011;13778;48.236;9.894;2022-07-23T17:27:11;9.43;;;8.63;;
25988;SDS011;13778;48.236;9.894;2022-07-23T17:32:52;10.30;;;9.27;;
25988;SDS011;13778;48.236;9.894;2022-07-23T17:35:42;10.77;;;9.77;;
25988;SDS011;13778;48.236;9.894;2022-07-23T17:38:33;11.15;;;9.60;;
25988;SDS011;13778;48.236;9.894;2022-07-23T17:41:23;9.85;;;8.90;;
25988;SDS011;13778;48.236;9.894;2022-07-23T17:44:15;10.00;;;9.18;;